sensor_id;sensor_type;location;lat;lon;timestamp;temperature;humidity
21551;DHT22;10936;49.836;7.078;2022-09-20T00:00:42;20.00;98.50
21551;DHT22;10936;49.836;7.078;2022-09-20T00:03:08;20.00;98.50
21551;DHT22;10936;49.836;7.078;2022-09-20T00:05:36;20.00;98.50
21551;DHT22;10936;49.836;7.078;2022-09-20T00:08:03;20.00;98.50
21551;DHT22;10936;49.836;7.078;2022-09-20T00:10:30;20.00;98.50
21551;DHT22;10936;49.836;7.078;2022-09-20T00:12:58;20.00;98.50
21551;DHT22;10936;49.836;7.078;2022-09-20T00:15:24;20.00;98.50
21551;DHT22;10936;49.836;7.078;2022-09-20T00:17:50;20.00;98.50
21551;DHT22;10936;49.836;7.078;2022-09-20T00:20:15;20.00;98.50
21551;DHT22;10936;49.836;7.078;2022-09-20T00:22:41;20.00;98.50
21551;DHT22;10936;49.836;7.078;2022-09-20T00:25:07;20.00;98.50
21551;DHT22;10936;49.836;7.078;2022-09-20T00:27:33;20.00;98.50
21551;DHT22;10936;49.836;7.078;2022-09-20T00:29:58;20.00;98.50
21551;DHT22;10936;49.836;7.078;2022-09-20T00:32:24;20.00;98.50
21551;DHT22;10936;49.836;7.078;2022-09-20T00:34:50;20.00;98.50
21551;DHT22;10936;49.836;7.078;2022-09-20T00:37:36;20.00;98.50
21551;DHT22;10936;49.836;7.078;2022-09-20T00:40:05;20.00;98.50
21551;DHT22;10936;49.836;7.078;2022-09-20T00:42:31;20.00;98.50
21551;DHT22;10936;49.836;7.078;2022-09-20T00:45:01;20.00;98.50
21551;DHT22;10936;49.836;7.078;2022-09-20T00:52:55;20.00;98.50
21551;DHT22;10936;49.836;7.078;2022-09-20T00:55:22;19.90;98.40
21551;DHT22;10936;49.836;7.078;2022-09-20T00:57:48;19.90;98.50
21551;DHT22;10936;49.836;7.078;2022-09-20T01:00:14;19.90;98.50
21551;DHT22;10936;49.836;7.078;2022-09-20T01:02:44;19.90;98.40
21551;DHT22;10936;49.836;7.078;2022-09-20T01:05:12;19.90;98.40
21551;DHT22;10936;49.836;7.078;2022-09-20T01:07:40;19.90;98.40
21551;DHT22;10936;49.836;7.078;2022-09-20T01:10:07;19.90;98.40
21551;DHT22;10936;49.836;7.078;2022-09-20T01:12:33;19.90;98.40
21551;DHT22;10936;49.836;7.078;2022-09-20T01:15:03;19.90;98.40
21551;DHT22;10936;49.836;7.078;2022-09-20T01:17:31;19.90;98.50
21551;DHT22;10936;49.836;7.078;2022-09-20T01:27:57;19.90;98.50
21551;DHT22;10936;49.836;7.078;2022-09-20T01:30:25;19.90;98.80
21551;DHT22;10936;49.836;7.078;2022-09-20T01:35:38;19.90;98.40
21551;DHT22;10936;49.836;7.078;2022-09-20T01:46:29;19.90;98.40
21551;DHT22;10936;49.836;7.078;2022-09-20T02:00:13;19.90;98.40
21551;DHT22;10936;49.836;7.078;2022-09-20T02:02:46;19.90;98.40
21551;DHT22;10936;49.836;7.078;2022-09-20T02:11:17;19.80;98.40
21551;DHT22;10936;49.836;7.078;2022-09-20T02:14:03;19.80;98.40
21551;DHT22;10936;49.836;7.078;2022-09-20T02:27:22;19.80;98.40
21551;DHT22;10936;49.836;7.078;2022-09-20T02:44:14;19.80;98.40
21551;DHT22;10936;49.836;7.078;2022-09-20T02:46:53;19.80;98.40
21551;DHT22;10936;49.836;7.078;2022-09-20T02:52:22;19.80;98.40
21551;DHT22;10936;49.836;7.078;2022-09-20T02:57:44;19.80;98.40
21551;DHT22;10936;49.836;7.078;2022-09-20T03:00:18;19.80;98.40
21551;DHT22;10936;49.836;7.078;2022-09-20T03:05:59;19.80;98.40
21551;DHT22;10936;49.836;7.078;2022-09-20T03:11:36;19.80;98.40
21551;DHT22;10936;49.836;7.078;2022-09-20T03:17:03;19.80;98.30
21551;DHT22;10936;49.836;7.078;2022-09-20T03:30:59;19.80;98.30
21551;DHT22;10936;49.836;7.078;2022-09-20T03:34:10;19.80;98.30
21551;DHT22;10936;49.836;7.078;2022-09-20T03:39:24;19.80;98.30
21551;DHT22;10936;49.836;7.078;2022-09-20T03:45:05;19.80;98.30
21551;DHT22;10936;49.836;7.078;2022-09-20T04:02:10;19.80;98.30
21551;DHT22;10936;49.836;7.078;2022-09-20T04:04:59;19.80;98.30
21551;DHT22;10936;49.836;7.078;2022-09-20T04:07:35;19.80;98.30
21551;DHT22;10936;49.836;7.078;2022-09-20T04:15:34;19.80;98.20
21551;DHT22;10936;49.836;7.078;2022-09-20T04:18:23;19.80;98.30
21551;DHT22;10936;49.836;7.078;2022-09-20T04:21:04;19.80;98.20
21551;DHT22;10936;49.836;7.078;2022-09-20T04:26:32;19.80;98.20
21551;DHT22;10936;49.836;7.078;2022-09-20T04:34:34;19.80;98.20
21551;DHT22;10936;49.836;7.078;2022-09-20T04:37:32;19.80;98.20
21551;DHT22;10936;49.836;7.078;2022-09-20T04:48:44;19.80;98.10
21551;DHT22;10936;49.836;7.078;2022-09-20T04:54:24;19.80;98.10
21551;DHT22;10936;49.836;7.078;2022-09-20T05:00:13;19.80;98.10
21551;DHT22;10936;49.836;7.078;2022-09-20T05:06:00;19.80;98.10
21551;DHT22;10936;49.836;7.078;2022-09-20T05:11:54;19.80;98.10
21551;DHT22;10936;49.836;7.078;2022-09-20T05:14:50;19.80;98.10
21551;DHT22;10936;49.836;7.078;2022-09-20T05:28:17;19.80;98.10
21551;DHT22;10936;49.836;7.078;2022-09-20T05:30:45;19.80;98.10
21551;DHT22;10936;49.836;7.078;2022-09-20T05:33:32;19.80;98.10
21551;DHT22;10936;49.836;7.078;2022-09-20T05:38:47;19.80;98.10
21551;DHT22;10936;49.836;7.078;2022-09-20T05:46:48;19.80;98.10
21551;DHT22;10936;49.836;7.078;2022-09-20T05:55:19;19.80;98.00
21551;DHT22;10936;49.836;7.078;2022-09-20T05:58:26;19.80;98.00
21551;DHT22;10936;49.836;7.078;2022-09-20T06:01:06;19.80;98.00
21551;DHT22;10936;49.836;7.078;2022-09-20T06:03:54;19.80;98.00
21551;DHT22;10936;49.836;7.078;2022-09-20T06:06:50;19.80;98.10
21551;DHT22;10936;49.836;7.078;2022-09-20T06:15:35;19.40;96.60
21551;DHT22;10936;49.836;7.078;2022-09-20T06:23:34;18.80;97.80
21551;DHT22;10936;49.836;7.078;2022-09-20T06:26:03;18.70;97.90
21551;DHT22;10936;49.836;7.078;2022-09-20T06:28:41;18.70;97.90
21551;DHT22;10936;49.836;7.078;2022-09-20T06:31:07;18.70;97.50
21551;DHT22;10936;49.836;7.078;2022-09-20T06:34:22;18.60;97.70
21551;DHT22;10936;49.836;7.078;2022-09-20T06:40:35;18.40;97.90
21551;DHT22;10936;49.836;7.078;2022-09-20T06:43:20;18.30;98.20
21551;DHT22;10936;49.836;7.078;2022-09-20T06:45:46;18.20;98.40
21551;DHT22;10936;49.836;7.078;2022-09-20T06:48:13;18.10;98.60
21551;DHT22;10936;49.836;7.078;2022-09-20T06:50:40;18.10;98.90
21551;DHT22;10936;49.836;7.078;2022-09-20T06:53:16;18.10;98.80
21551;DHT22;10936;49.836;7.078;2022-09-20T06:55:43;18.10;99.10
21551;DHT22;10936;49.836;7.078;2022-09-20T06:58:09;18.20;98.90
21551;DHT22;10936;49.836;7.078;2022-09-20T07:00:36;18.20;98.90
21551;DHT22;10936;49.836;7.078;2022-09-20T07:03:04;18.20;98.80
21551;DHT22;10936;49.836;7.078;2022-09-20T07:05:30;18.20;98.70
21551;DHT22;10936;49.836;7.078;2022-09-20T07:07:57;18.10;98.80
21551;DHT22;10936;49.836;7.078;2022-09-20T07:10:24;18.10;98.90
21551;DHT22;10936;49.836;7.078;2022-09-20T07:12:58;18.10;99.00
21551;DHT22;10936;49.836;7.078;2022-09-20T07:15:29;18.10;99.50
21551;DHT22;10936;49.836;7.078;2022-09-20T07:17:55;18.20;99.90
21551;DHT22;10936;49.836;7.078;2022-09-20T07:20:21;18.30;99.80
21551;DHT22;10936;49.836;7.078;2022-09-20T07:22:48;18.40;99.50
21551;DHT22;10936;49.836;7.078;2022-09-20T07:25:13;18.60;99.30
21551;DHT22;10936;49.836;7.078;2022-09-20T07:27:39;18.60;99.10
21551;DHT22;10936;49.836;7.078;2022-09-20T07:30:06;18.70;99.00
21551;DHT22;10936;49.836;7.078;2022-09-20T07:32:32;18.80;98.90
21551;DHT22;10936;49.836;7.078;2022-09-20T07:34:58;18.90;98.70
21551;DHT22;10936;49.836;7.078;2022-09-20T07:37:23;18.90;98.60
21551;DHT22;10936;49.836;7.078;2022-09-20T07:39:49;19.00;98.50
21551;DHT22;10936;49.836;7.078;2022-09-20T07:42:15;19.00;98.40
21551;DHT22;10936;49.836;7.078;2022-09-20T07:44:40;19.10;98.40
21551;DHT22;10936;49.836;7.078;2022-09-20T07:47:08;19.10;98.30
21551;DHT22;10936;49.836;7.078;2022-09-20T07:49:38;19.10;98.30
21551;DHT22;10936;49.836;7.078;2022-09-20T07:52:04;19.20;98.20
21551;DHT22;10936;49.836;7.078;2022-09-20T07:54:29;19.20;98.10
21551;DHT22;10936;49.836;7.078;2022-09-20T07:56:55;19.20;98.10
21551;DHT22;10936;49.836;7.078;2022-09-20T07:59:21;19.30;98.00
21551;DHT22;10936;49.836;7.078;2022-09-20T08:01:47;19.30;98.00
21551;DHT22;10936;49.836;7.078;2022-09-20T08:04:13;19.30;98.00
21551;DHT22;10936;49.836;7.078;2022-09-20T08:06:41;19.40;98.00
21551;DHT22;10936;49.836;7.078;2022-09-20T08:09:08;19.40;98.00
21551;DHT22;10936;49.836;7.078;2022-09-20T08:11:34;19.40;97.90
21551;DHT22;10936;49.836;7.078;2022-09-20T08:14:01;19.50;97.90
21551;DHT22;10936;49.836;7.078;2022-09-20T08:16:28;19.50;97.80
21551;DHT22;10936;49.836;7.078;2022-09-20T08:18:57;19.50;97.80
21551;DHT22;10936;49.836;7.078;2022-09-20T08:21:29;19.50;97.80
21551;DHT22;10936;49.836;7.078;2022-09-20T08:23:56;19.50;97.70
21551;DHT22;10936;49.836;7.078;2022-09-20T08:26:23;19.50;97.70
21551;DHT22;10936;49.836;7.078;2022-09-20T08:28:54;19.50;98.00
21551;DHT22;10936;49.836;7.078;2022-09-20T08:31:23;19.60;97.70
21551;DHT22;10936;49.836;7.078;2022-09-20T08:33:50;19.60;97.70
21551;DHT22;10936;49.836;7.078;2022-09-20T08:36:18;19.60;97.60
21551;DHT22;10936;49.836;7.078;2022-09-20T08:38:44;19.60;97.60
21551;DHT22;10936;49.836;7.078;2022-09-20T08:41:16;19.70;97.60
21551;DHT22;10936;49.836;7.078;2022-09-20T08:43:53;19.70;97.60
21551;DHT22;10936;49.836;7.078;2022-09-20T08:46:23;19.70;97.60
21551;DHT22;10936;49.836;7.078;2022-09-20T08:48:51;19.70;97.60
21551;DHT22;10936;49.836;7.078;2022-09-20T08:51:17;19.70;97.50
21551;DHT22;10936;49.836;7.078;2022-09-20T08:53:52;19.80;97.50
21551;DHT22;10936;49.836;7.078;2022-09-20T08:56:20;19.80;97.50
21551;DHT22;10936;49.836;7.078;2022-09-20T08:58:47;19.80;97.40
21551;DHT22;10936;49.836;7.078;2022-09-20T09:01:20;19.80;97.40
21551;DHT22;10936;49.836;7.078;2022-09-20T09:03:48;19.90;97.40
21551;DHT22;10936;49.836;7.078;2022-09-20T09:06:18;19.80;97.30
21551;DHT22;10936;49.836;7.078;2022-09-20T09:08:45;19.90;97.30
21551;DHT22;10936;49.836;7.078;2022-09-20T09:11:15;19.90;97.40
21551;DHT22;10936;49.836;7.078;2022-09-20T09:14:02;19.90;97.30
21551;DHT22;10936;49.836;7.078;2022-09-20T09:16:33;19.90;97.30
21551;DHT22;10936;49.836;7.078;2022-09-20T09:19:25;19.90;97.30
21551;DHT22;10936;49.836;7.078;2022-09-20T09:21:59;19.90;97.30
21551;DHT22;10936;49.836;7.078;2022-09-20T09:24:26;19.90;97.30
21551;DHT22;10936;49.836;7.078;2022-09-20T09:27:11;19.90;97.30
21551;DHT22;10936;49.836;7.078;2022-09-20T09:29:51;19.90;97.30
21551;DHT22;10936;49.836;7.078;2022-09-20T09:32:30;19.90;97.30
21551;DHT22;10936;49.836;7.078;2022-09-20T09:37:54;19.90;97.20
21551;DHT22;10936;49.836;7.078;2022-09-20T09:40:20;20.00;97.30
21551;DHT22;10936;49.836;7.078;2022-09-20T09:42:51;20.00;97.30
21551;DHT22;10936;49.836;7.078;2022-09-20T09:47:53;20.00;97.30
21551;DHT22;10936;49.836;7.078;2022-09-20T09:50:30;20.00;97.30
21551;DHT22;10936;49.836;7.078;2022-09-20T09:53:07;20.00;97.20
21551;DHT22;10936;49.836;7.078;2022-09-20T09:58:57;20.00;97.20
21551;DHT22;10936;49.836;7.078;2022-09-20T10:04:30;20.00;97.20
21551;DHT22;10936;49.836;7.078;2022-09-20T10:07:09;20.00;97.20
21551;DHT22;10936;49.836;7.078;2022-09-20T10:12:57;20.00;97.20
21551;DHT22;10936;49.836;7.078;2022-09-20T10:21:50;20.00;97.20
21551;DHT22;10936;49.836;7.078;2022-09-20T10:30:20;20.10;97.20
21551;DHT22;10936;49.836;7.078;2022-09-20T10:38:12;20.10;97.20
21551;DHT22;10936;49.836;7.078;2022-09-20T10:52:01;20.10;97.10
21551;DHT22;10936;49.836;7.078;2022-09-20T10:55:18;20.10;97.10
21551;DHT22;10936;49.836;7.078;2022-09-20T11:00:47;20.20;97.10
21551;DHT22;10936;49.836;7.078;2022-09-20T11:03:24;20.20;97.10
21551;DHT22;10936;49.836;7.078;2022-09-20T11:08:40;20.20;97.10
21551;DHT22;10936;49.836;7.078;2022-09-20T11:13:44;20.20;97.10
21551;DHT22;10936;49.836;7.078;2022-09-20T11:16:18;20.20;97.10
21551;DHT22;10936;49.836;7.078;2022-09-20T11:18:48;20.20;97.10
21551;DHT22;10936;49.836;7.078;2022-09-20T11:21:20;20.20;97.10
21551;DHT22;10936;49.836;7.078;2022-09-20T11:30:04;20.20;97.10
21551;DHT22;10936;49.836;7.078;2022-09-20T11:32:40;20.20;97.10
21551;DHT22;10936;49.836;7.078;2022-09-20T11:35:35;20.20;97.10
21551;DHT22;10936;49.836;7.078;2022-09-20T11:40:31;20.20;97.10
21551;DHT22;10936;49.836;7.078;2022-09-20T11:43:01;20.20;97.10
21551;DHT22;10936;49.836;7.078;2022-09-20T11:45:28;20.20;97.10
21551;DHT22;10936;49.836;7.078;2022-09-20T11:48:02;20.20;97.10
21551;DHT22;10936;49.836;7.078;2022-09-20T11:53:37;20.20;97.10
21551;DHT22;10936;49.836;7.078;2022-09-20T11:58:58;20.20;97.30
21551;DHT22;10936;49.836;7.078;2022-09-20T12:01:35;20.20;97.30
21551;DHT22;10936;49.836;7.078;2022-09-20T12:04:12;20.20;97.30
21551;DHT22;10936;49.836;7.078;2022-09-20T12:06:39;20.20;97.40
21551;DHT22;10936;49.836;7.078;2022-09-20T12:09:22;20.20;97.50
21551;DHT22;10936;49.836;7.078;2022-09-20T12:11:48;20.20;97.50
21551;DHT22;10936;49.836;7.078;2022-09-20T12:14:21;20.20;97.50
21551;DHT22;10936;49.836;7.078;2022-09-20T12:16:48;20.30;97.50
21551;DHT22;10936;49.836;7.078;2022-09-20T12:24:29;20.20;97.50
21551;DHT22;10936;49.836;7.078;2022-09-20T12:30:17;20.30;97.50
21551;DHT22;10936;49.836;7.078;2022-09-20T12:32:48;20.30;97.50
21551;DHT22;10936;49.836;7.078;2022-09-20T12:41:10;20.40;97.50
21551;DHT22;10936;49.836;7.078;2022-09-20T12:44:01;20.40;97.60
21551;DHT22;10936;49.836;7.078;2022-09-20T12:46:41;20.40;97.70
21551;DHT22;10936;49.836;7.078;2022-09-20T12:49:38;20.40;97.70
21551;DHT22;10936;49.836;7.078;2022-09-20T13:00:33;20.40;97.90
21551;DHT22;10936;49.836;7.078;2022-09-20T13:05:40;20.40;97.90
21551;DHT22;10936;49.836;7.078;2022-09-20T13:08:22;20.40;97.90
21551;DHT22;10936;49.836;7.078;2022-09-20T13:11:13;20.40;97.90
21551;DHT22;10936;49.836;7.078;2022-09-20T13:19:00;20.40;97.90
21551;DHT22;10936;49.836;7.078;2022-09-20T13:21:26;20.50;97.90
21551;DHT22;10936;49.836;7.078;2022-09-20T13:23:53;20.40;97.80
21551;DHT22;10936;49.836;7.078;2022-09-20T13:26:32;20.40;97.80
21551;DHT22;10936;49.836;7.078;2022-09-20T13:28:59;20.40;97.80
21551;DHT22;10936;49.836;7.078;2022-09-20T13:31:28;20.40;97.80
21551;DHT22;10936;49.836;7.078;2022-09-20T13:34:10;20.50;97.80
21551;DHT22;10936;49.836;7.078;2022-09-20T13:36:36;20.50;97.80
21551;DHT22;10936;49.836;7.078;2022-09-20T13:39:05;20.50;97.70
21551;DHT22;10936;49.836;7.078;2022-09-20T13:41:32;20.50;97.70
21551;DHT22;10936;49.836;7.078;2022-09-20T13:44:00;20.50;97.70
21551;DHT22;10936;49.836;7.078;2022-09-20T13:46:31;20.50;97.70
21551;DHT22;10936;49.836;7.078;2022-09-20T13:51:33;20.50;97.60
21551;DHT22;10936;49.836;7.078;2022-09-20T13:54:18;20.50;97.60
21551;DHT22;10936;49.836;7.078;2022-09-20T13:56:47;20.50;97.60
21551;DHT22;10936;49.836;7.078;2022-09-20T13:59:13;20.50;97.60
21551;DHT22;10936;49.836;7.078;2022-09-20T14:01:52;20.50;97.60
21551;DHT22;10936;49.836;7.078;2022-09-20T14:04:27;20.50;97.60
21551;DHT22;10936;49.836;7.078;2022-09-20T14:06:56;20.60;97.60
21551;DHT22;10936;49.836;7.078;2022-09-20T14:09:30;20.60;97.60
21551;DHT22;10936;49.836;7.078;2022-09-20T14:11:57;20.50;97.60
21551;DHT22;10936;49.836;7.078;2022-09-20T14:14:24;20.50;97.60
21551;DHT22;10936;49.836;7.078;2022-09-20T14:16:51;20.50;97.60
21551;DHT22;10936;49.836;7.078;2022-09-20T14:19:20;20.50;97.60
21551;DHT22;10936;49.836;7.078;2022-09-20T14:21:48;20.60;97.60
21551;DHT22;10936;49.836;7.078;2022-09-20T14:24:27;20.50;97.60
21551;DHT22;10936;49.836;7.078;2022-09-20T14:27:16;20.50;97.60
21551;DHT22;10936;49.836;7.078;2022-09-20T14:29:45;20.50;97.60
21551;DHT22;10936;49.836;7.078;2022-09-20T14:32:25;20.50;97.60
21551;DHT22;10936;49.836;7.078;2022-09-20T14:34:58;20.50;97.60
21551;DHT22;10936;49.836;7.078;2022-09-20T14:40:24;20.50;97.60
21551;DHT22;10936;49.836;7.078;2022-09-20T14:42:51;20.50;97.60
21551;DHT22;10936;49.836;7.078;2022-09-20T14:50:36;20.60;97.60
21551;DHT22;10936;49.836;7.078;2022-09-20T14:55:38;20.50;97.60
21551;DHT22;10936;49.836;7.078;2022-09-20T14:58:12;20.50;97.60
21551;DHT22;10936;49.836;7.078;2022-09-20T15:00:50;20.50;97.60
21551;DHT22;10936;49.836;7.078;2022-09-20T15:03:32;20.50;97.60
21551;DHT22;10936;49.836;7.078;2022-09-20T15:05:58;20.50;97.60
21551;DHT22;10936;49.836;7.078;2022-09-20T15:08:25;20.50;97.60
21551;DHT22;10936;49.836;7.078;2022-09-20T15:10:51;20.50;97.60
21551;DHT22;10936;49.836;7.078;2022-09-20T15:13:17;20.50;97.60
21551;DHT22;10936;49.836;7.078;2022-09-20T15:15:43;20.50;97.60
21551;DHT22;10936;49.836;7.078;2022-09-20T15:18:31;20.50;97.60
21551;DHT22;10936;49.836;7.078;2022-09-20T15:20:59;20.50;97.60
21551;DHT22;10936;49.836;7.078;2022-09-20T15:23:25;20.50;97.60
21551;DHT22;10936;49.836;7.078;2022-09-20T15:25:53;20.50;97.60
21551;DHT22;10936;49.836;7.078;2022-09-20T15:28:19;20.50;97.60
21551;DHT22;10936;49.836;7.078;2022-09-20T15:30:50;20.50;97.60
21551;DHT22;10936;49.836;7.078;2022-09-20T15:33:17;20.50;97.60
21551;DHT22;10936;49.836;7.078;2022-09-20T15:35:43;20.50;97.60
21551;DHT22;10936;49.836;7.078;2022-09-20T15:38:10;20.50;97.60
21551;DHT22;10936;49.836;7.078;2022-09-20T15:40:46;20.50;97.60
21551;DHT22;10936;49.836;7.078;2022-09-20T15:43:17;20.50;97.60
21551;DHT22;10936;49.836;7.078;2022-09-20T15:45:48;20.50;97.60
21551;DHT22;10936;49.836;7.078;2022-09-20T15:48:15;20.50;97.60
21551;DHT22;10936;49.836;7.078;2022-09-20T15:53:35;20.50;97.60
21551;DHT22;10936;49.836;7.078;2022-09-20T15:56:06;20.50;97.60
21551;DHT22;10936;49.836;7.078;2022-09-20T15:58:38;20.50;97.70
21551;DHT22;10936;49.836;7.078;2022-09-20T16:01:08;20.50;97.70
21551;DHT22;10936;49.836;7.078;2022-09-20T16:03:34;20.50;97.70
21551;DHT22;10936;49.836;7.078;2022-09-20T16:06:05;20.50;97.70
21551;DHT22;10936;49.836;7.078;2022-09-20T16:08:36;20.50;97.70
21551;DHT22;10936;49.836;7.078;2022-09-20T16:11:03;20.50;97.70
21551;DHT22;10936;49.836;7.078;2022-09-20T16:13:29;20.50;97.70
21551;DHT22;10936;49.836;7.078;2022-09-20T16:15:55;20.50;97.70
21551;DHT22;10936;49.836;7.078;2022-09-20T16:18:21;20.50;97.70
21551;DHT22;10936;49.836;7.078;2022-09-20T16:21:10;20.50;97.70
21551;DHT22;10936;49.836;7.078;2022-09-20T16:23:40;20.50;97.70
21551;DHT22;10936;49.836;7.078;2022-09-20T16:26:07;20.50;97.70
21551;DHT22;10936;49.836;7.078;2022-09-20T16:28:41;20.50;97.80
21551;DHT22;10936;49.836;7.078;2022-09-20T16:31:45;20.50;97.70
21551;DHT22;10936;49.836;7.078;2022-09-20T16:36:50;20.40;97.90
21551;DHT22;10936;49.836;7.078;2022-09-20T16:39:17;20.50;97.90
21551;DHT22;10936;49.836;7.078;2022-09-20T16:41:47;20.50;97.90
21551;DHT22;10936;49.836;7.078;2022-09-20T16:44:14;20.50;97.90
21551;DHT22;10936;49.836;7.078;2022-09-20T16:46:40;20.50;97.90
21551;DHT22;10936;49.836;7.078;2022-09-20T16:49:07;20.50;97.90
21551;DHT22;10936;49.836;7.078;2022-09-20T16:51:35;20.50;98.00
21551;DHT22;10936;49.836;7.078;2022-09-20T16:54:09;20.40;98.10
21551;DHT22;10936;49.836;7.078;2022-09-20T16:56:40;20.50;98.10
21551;DHT22;10936;49.836;7.078;2022-09-20T16:59:07;20.40;98.10
21551;DHT22;10936;49.836;7.078;2022-09-20T17:01:34;20.50;98.10
21551;DHT22;10936;49.836;7.078;2022-09-20T17:04:02;20.50;98.10
21551;DHT22;10936;49.836;7.078;2022-09-20T17:06:30;20.40;98.10
21551;DHT22;10936;49.836;7.078;2022-09-20T17:08:56;20.40;98.20
21551;DHT22;10936;49.836;7.078;2022-09-20T17:11:29;20.40;98.20
21551;DHT22;10936;49.836;7.078;2022-09-20T17:13:56;20.40;98.20
21551;DHT22;10936;49.836;7.078;2022-09-20T17:16:40;20.40;98.20
21551;DHT22;10936;49.836;7.078;2022-09-20T17:19:11;20.40;98.20
21551;DHT22;10936;49.836;7.078;2022-09-20T17:21:39;20.40;98.30
21551;DHT22;10936;49.836;7.078;2022-09-20T17:24:07;20.40;98.30
21551;DHT22;10936;49.836;7.078;2022-09-20T17:26:35;20.40;98.30
21551;DHT22;10936;49.836;7.078;2022-09-20T17:29:04;20.40;98.30
21551;DHT22;10936;49.836;7.078;2022-09-20T17:31:33;20.40;98.40
21551;DHT22;10936;49.836;7.078;2022-09-20T17:34:00;20.40;98.40
21551;DHT22;10936;49.836;7.078;2022-09-20T17:36:29;20.40;98.40
21551;DHT22;10936;49.836;7.078;2022-09-20T17:38:56;20.40;98.40
21551;DHT22;10936;49.836;7.078;2022-09-20T17:41:24;20.40;98.50
21551;DHT22;10936;49.836;7.078;2022-09-20T17:43:54;20.40;98.50
21551;DHT22;10936;49.836;7.078;2022-09-20T17:46:24;20.40;98.50
21551;DHT22;10936;49.836;7.078;2022-09-20T17:48:54;20.40;98.50
21551;DHT22;10936;49.836;7.078;2022-09-20T17:51:25;20.40;98.50
21551;DHT22;10936;49.836;7.078;2022-09-20T17:53:52;20.40;98.50
21551;DHT22;10936;49.836;7.078;2022-09-20T17:56:18;20.40;98.50
21551;DHT22;10936;49.836;7.078;2022-09-20T17:58:47;20.40;98.50
21551;DHT22;10936;49.836;7.078;2022-09-20T18:01:15;20.40;98.50
21551;DHT22;10936;49.836;7.078;2022-09-20T18:03:43;20.40;98.50
21551;DHT22;10936;49.836;7.078;2022-09-20T18:08:36;20.40;98.50
21551;DHT22;10936;49.836;7.078;2022-09-20T18:11:02;20.40;98.40
21551;DHT22;10936;49.836;7.078;2022-09-20T18:13:27;20.40;98.40
21551;DHT22;10936;49.836;7.078;2022-09-20T18:15:54;20.40;98.40
21551;DHT22;10936;49.836;7.078;2022-09-20T18:18:20;20.40;98.40
21551;DHT22;10936;49.836;7.078;2022-09-20T18:20:46;20.40;98.40
21551;DHT22;10936;49.836;7.078;2022-09-20T18:23:13;20.40;98.40
21551;DHT22;10936;49.836;7.078;2022-09-20T18:25:38;20.40;98.40
21551;DHT22;10936;49.836;7.078;2022-09-20T18:28:22;20.40;98.40
21551;DHT22;10936;49.836;7.078;2022-09-20T18:30:58;20.40;98.40
21551;DHT22;10936;49.836;7.078;2022-09-20T18:33:25;20.30;98.30
21551;DHT22;10936;49.836;7.078;2022-09-20T18:35:51;20.40;98.30
21551;DHT22;10936;49.836;7.078;2022-09-20T18:38:17;20.40;98.30
21551;DHT22;10936;49.836;7.078;2022-09-20T18:40:51;20.40;98.40
21551;DHT22;10936;49.836;7.078;2022-09-20T18:43:18;20.40;98.30
21551;DHT22;10936;49.836;7.078;2022-09-20T18:45:50;20.30;98.30
21551;DHT22;10936;49.836;7.078;2022-09-20T18:48:17;20.40;98.30
21551;DHT22;10936;49.836;7.078;2022-09-20T18:50:58;20.30;98.30
21551;DHT22;10936;49.836;7.078;2022-09-20T18:53:32;20.30;98.60
21551;DHT22;10936;49.836;7.078;2022-09-20T18:58:46;20.30;98.30
21551;DHT22;10936;49.836;7.078;2022-09-20T19:26:43;20.30;98.20
21551;DHT22;10936;49.836;7.078;2022-09-20T19:29:21;20.30;98.20
21551;DHT22;10936;49.836;7.078;2022-09-20T19:31:49;20.30;98.20
21551;DHT22;10936;49.836;7.078;2022-09-20T19:34:21;20.30;98.20
21551;DHT22;10936;49.836;7.078;2022-09-20T19:45:21;20.30;98.20
21551;DHT22;10936;49.836;7.078;2022-09-20T19:48:15;20.20;98.10
21551;DHT22;10936;49.836;7.078;2022-09-20T19:50:48;20.30;98.10
21551;DHT22;10936;49.836;7.078;2022-09-20T19:53:16;20.30;98.10
21551;DHT22;10936;49.836;7.078;2022-09-20T19:55:46;20.30;98.10
21551;DHT22;10936;49.836;7.078;2022-09-20T19:58:13;20.20;98.10
21551;DHT22;10936;49.836;7.078;2022-09-20T20:00:41;20.30;98.10
21551;DHT22;10936;49.836;7.078;2022-09-20T20:03:12;20.30;98.10
21551;DHT22;10936;49.836;7.078;2022-09-20T20:05:47;20.20;98.10
21551;DHT22;10936;49.836;7.078;2022-09-20T20:08:26;20.20;98.10
21551;DHT22;10936;49.836;7.078;2022-09-20T20:13:45;20.30;98.60
21551;DHT22;10936;49.836;7.078;2022-09-20T20:16:33;20.30;98.10
21551;DHT22;10936;49.836;7.078;2022-09-20T20:21:58;20.30;98.10
21551;DHT22;10936;49.836;7.078;2022-09-20T20:24:36;20.30;98.10
21551;DHT22;10936;49.836;7.078;2022-09-20T20:27:05;20.30;98.10
21551;DHT22;10936;49.836;7.078;2022-09-20T20:29:31;20.30;98.10
21551;DHT22;10936;49.836;7.078;2022-09-20T20:31:56;20.30;98.10
21551;DHT22;10936;49.836;7.078;2022-09-20T20:34:22;20.30;98.20
21551;DHT22;10936;49.836;7.078;2022-09-20T20:36:48;20.30;98.20
21551;DHT22;10936;49.836;7.078;2022-09-20T20:39:14;20.30;98.20
21551;DHT22;10936;49.836;7.078;2022-09-20T20:41:40;20.30;98.20
21551;DHT22;10936;49.836;7.078;2022-09-20T20:44:07;20.30;98.20
21551;DHT22;10936;49.836;7.078;2022-09-20T20:46:33;20.30;98.20
21551;DHT22;10936;49.836;7.078;2022-09-20T20:49:01;20.20;98.20
21551;DHT22;10936;49.836;7.078;2022-09-20T20:51:27;20.20;98.20
21551;DHT22;10936;49.836;7.078;2022-09-20T20:53:53;20.20;98.20
21551;DHT22;10936;49.836;7.078;2022-09-20T20:56:24;20.20;98.20
21551;DHT22;10936;49.836;7.078;2022-09-20T20:58:50;20.20;98.20
21551;DHT22;10936;49.836;7.078;2022-09-20T21:01:34;20.20;98.20
21551;DHT22;10936;49.836;7.078;2022-09-20T21:04:00;20.20;98.20
21551;DHT22;10936;49.836;7.078;2022-09-20T21:06:31;20.20;98.20
21551;DHT22;10936;49.836;7.078;2022-09-20T21:08:59;20.20;98.20
21551;DHT22;10936;49.836;7.078;2022-09-20T21:11:30;20.20;98.30
21551;DHT22;10936;49.836;7.078;2022-09-20T21:13:58;20.20;98.30
21551;DHT22;10936;49.836;7.078;2022-09-20T21:16:30;20.20;98.30
21551;DHT22;10936;49.836;7.078;2022-09-20T21:18:56;20.20;98.30
21551;DHT22;10936;49.836;7.078;2022-09-20T21:21:26;20.20;98.30
21551;DHT22;10936;49.836;7.078;2022-09-20T21:23:56;20.20;98.30
21551;DHT22;10936;49.836;7.078;2022-09-20T21:26:24;20.20;98.30
21551;DHT22;10936;49.836;7.078;2022-09-20T21:28:51;20.20;98.30
21551;DHT22;10936;49.836;7.078;2022-09-20T21:31:19;20.20;98.30
21551;DHT22;10936;49.836;7.078;2022-09-20T21:33:46;20.20;98.30
21551;DHT22;10936;49.836;7.078;2022-09-20T21:36:14;20.20;98.30
21551;DHT22;10936;49.836;7.078;2022-09-20T21:38:41;20.20;98.30
21551;DHT22;10936;49.836;7.078;2022-09-20T21:41:08;20.10;98.30
21551;DHT22;10936;49.836;7.078;2022-09-20T21:43:37;20.10;98.30
21551;DHT22;10936;49.836;7.078;2022-09-20T21:46:12;20.20;98.30